sensor_id;sensor_type;location;lat;lon;timestamp;P1;durP1;ratioP1;P2;durP2;ratioP2
38182;SDS011;23991;52.430;10.586;2024-01-30T00:00:41;9.40;;;6.55;;
38182;SDS011;23991;52.430;10.586;2024-01-30T00:03:06;8.65;;;6.30;;
38182;SDS011;23991;52.430;10.586;2024-01-30T00:05:32;9.18;;;5.93;;
38182;SDS011;23991;52.430;10.586;2024-01-30T00:07:57;10.75;;;6.68;;
38182;SDS011;23991;52.430;10.586;2024-01-30T00:10:23;12.00;;;6.13;;
38182;SDS011;23991;52.430;10.586;2024-01-30T00:12:48;8.43;;;5.93;;
38182;SDS011;23991;52.430;10.586;2024-01-30T00:15:14;12.02;;;6.60;;
38182;SDS011;23991;52.430;10.586;2024-01-30T00:17:40;9.60;;;5.78;;
38182;SDS011;23991;52.430;10.586;2024-01-30T00:20:05;12.18;;;6.32;;
38182;SDS011;23991;52.430;10.586;2024-01-30T00:22:32;12.90;;;6.32;;
38182;SDS011;23991;52.430;10.586;2024-01-30T00:24:57;10.38;;;6.55;;
38182;SDS011;23991;52.430;10.586;2024-01-30T00:27:23;10.52;;;6.80;;
38182;SDS011;23991;52.430;10.586;2024-01-30T00:29:49;11.77;;;7.05;;
38182;SDS011;23991;52.430;10.586;2024-01-30T00:32:14;10.68;;;6.40;;
38182;SDS011;23991;52.430;10.586;2024-01-30T00:34:41;10.13;;;6.85;;
38182;SDS011;23991;52.430;10.586;2024-01-30T00:37:07;10.82;;;6.90;;
38182;SDS011;23991;52.430;10.586;2024-01-30T00:39:33;11.48;;;6.38;;
38182;SDS011;23991;52.430;10.586;2024-01-30T00:41:58;11.10;;;7.32;;
38182;SDS011;23991;52.430;10.586;2024-01-30T00:44:24;9.77;;;6.20;;
38182;SDS011;23991;52.430;10.586;2024-01-30T00:46:49;11.30;;;6.25;;
38182;SDS011;23991;52.430;10.586;2024-01-30T00:49:15;10.85;;;6.80;;
38182;SDS011;23991;52.430;10.586;2024-01-30T00:51:40;9.55;;;6.18;;
38182;SDS011;23991;52.430;10.586;2024-01-30T00:54:06;9.23;;;5.93;;
38182;SDS011;23991;52.430;10.586;2024-01-30T00:56:31;9.48;;;6.10;;
38182;SDS011;23991;52.430;10.586;2024-01-30T00:58:58;10.10;;;6.30;;
38182;SDS011;23991;52.430;10.586;2024-01-30T01:01:23;10.65;;;7.07;;
38182;SDS011;23991;52.430;10.586;2024-01-30T01:03:49;12.95;;;6.85;;
38182;SDS011;23991;52.430;10.586;2024-01-30T01:06:15;12.82;;;6.70;;
38182;SDS011;23991;52.430;10.586;2024-01-30T01:08:41;9.02;;;6.00;;
38182;SDS011;23991;52.430;10.586;2024-01-30T01:11:06;12.52;;;6.38;;
38182;SDS011;23991;52.430;10.586;2024-01-30T01:13:32;10.63;;;6.85;;
38182;SDS011;23991;52.430;10.586;2024-01-30T01:15:57;10.75;;;6.30;;
38182;SDS011;23991;52.430;10.586;2024-01-30T01:18:23;12.82;;;6.68;;
38182;SDS011;23991;52.430;10.586;2024-01-30T01:20:48;9.77;;;6.57;;
38182;SDS011;23991;52.430;10.586;2024-01-30T01:23:14;10.30;;;6.97;;
38182;SDS011;23991;52.430;10.586;2024-01-30T01:25:39;10.23;;;6.97;;
38182;SDS011;23991;52.430;10.586;2024-01-30T01:28:05;10.80;;;6.88;;
38182;SDS011;23991;52.430;10.586;2024-01-30T01:30:31;11.73;;;6.65;;
38182;SDS011;23991;52.430;10.586;2024-01-30T01:32:56;12.20;;;7.15;;
38182;SDS011;23991;52.430;10.586;2024-01-30T01:35:25;10.77;;;6.90;;
38182;SDS011;23991;52.430;10.586;2024-01-30T01:37:51;9.10;;;6.10;;
38182;SDS011;23991;52.430;10.586;2024-01-30T01:40:21;10.35;;;6.57;;
38182;SDS011;23991;52.430;10.586;2024-01-30T01:42:53;10.27;;;6.40;;
38182;SDS011;23991;52.430;10.586;2024-01-30T01:45:20;8.30;;;6.07;;
38182;SDS011;23991;52.430;10.586;2024-01-30T01:47:55;9.18;;;5.88;;
38182;SDS011;23991;52.430;10.586;2024-01-30T01:50:20;12.23;;;6.20;;
38182;SDS011;23991;52.430;10.586;2024-01-30T01:52:48;10.65;;;6.22;;
38182;SDS011;23991;52.430;10.586;2024-01-30T01:55:17;9.77;;;6.10;;
38182;SDS011;23991;52.430;10.586;2024-01-30T01:57:49;11.90;;;6.53;;
38182;SDS011;23991;52.430;10.586;2024-01-30T02:00:16;10.90;;;6.35;;
38182;SDS011;23991;52.430;10.586;2024-01-30T02:02:44;9.43;;;6.55;;
38182;SDS011;23991;52.430;10.586;2024-01-30T02:05:11;8.95;;;6.32;;
38182;SDS011;23991;52.430;10.586;2024-01-30T02:07:37;10.63;;;6.28;;
38182;SDS011;23991;52.430;10.586;2024-01-30T02:10:03;12.38;;;7.45;;
38182;SDS011;23991;52.430;10.586;2024-01-30T02:12:29;10.35;;;7.03;;
38182;SDS011;23991;52.430;10.586;2024-01-30T02:14:55;10.23;;;7.03;;
38182;SDS011;23991;52.430;10.586;2024-01-30T02:17:21;9.98;;;6.65;;
38182;SDS011;23991;52.430;10.586;2024-01-30T02:19:48;10.93;;;6.57;;
38182;SDS011;23991;52.430;10.586;2024-01-30T02:22:13;8.82;;;6.57;;
38182;SDS011;23991;52.430;10.586;2024-01-30T02:24:39;10.68;;;6.90;;
38182;SDS011;23991;52.430;10.586;2024-01-30T02:27:05;13.65;;;6.18;;
38182;SDS011;23991;52.430;10.586;2024-01-30T02:29:31;10.50;;;5.90;;
38182;SDS011;23991;52.430;10.586;2024-01-30T02:31:56;11.43;;;7.07;;
38182;SDS011;23991;52.430;10.586;2024-01-30T02:34:22;9.95;;;6.78;;
38182;SDS011;23991;52.430;10.586;2024-01-30T02:36:48;11.93;;;7.22;;
38182;SDS011;23991;52.430;10.586;2024-01-30T02:39:14;10.02;;;6.50;;
38182;SDS011;23991;52.430;10.586;2024-01-30T02:41:39;11.18;;;6.63;;
38182;SDS011;23991;52.430;10.586;2024-01-30T02:44:05;11.75;;;6.38;;
38182;SDS011;23991;52.430;10.586;2024-01-30T02:46:31;10.18;;;6.82;;
38182;SDS011;23991;52.430;10.586;2024-01-30T02:48:56;9.90;;;6.75;;
38182;SDS011;23991;52.430;10.586;2024-01-30T02:51:22;10.02;;;7.05;;
38182;SDS011;23991;52.430;10.586;2024-01-30T02:53:48;11.27;;;7.40;;
38182;SDS011;23991;52.430;10.586;2024-01-30T02:56:13;11.20;;;7.22;;
38182;SDS011;23991;52.430;10.586;2024-01-30T02:58:39;11.13;;;7.03;;
38182;SDS011;23991;52.430;10.586;2024-01-30T03:01:06;12.63;;;6.45;;
38182;SDS011;23991;52.430;10.586;2024-01-30T03:03:31;12.50;;;7.20;;
38182;SDS011;23991;52.430;10.586;2024-01-30T03:05:59;10.15;;;6.45;;
38182;SDS011;23991;52.430;10.586;2024-01-30T03:08:24;14.20;;;7.00;;
38182;SDS011;23991;52.430;10.586;2024-01-30T03:10:50;11.65;;;6.82;;
38182;SDS011;23991;52.430;10.586;2024-01-30T03:13:15;10.43;;;6.43;;
38182;SDS011;23991;52.430;10.586;2024-01-30T03:15:41;11.88;;;6.38;;
38182;SDS011;23991;52.430;10.586;2024-01-30T03:18:06;11.13;;;6.55;;
38182;SDS011;23991;52.430;10.586;2024-01-30T03:20:33;14.32;;;7.38;;
38182;SDS011;23991;52.430;10.586;2024-01-30T03:22:59;13.13;;;7.15;;
38182;SDS011;23991;52.430;10.586;2024-01-30T03:25:25;11.50;;;6.53;;
38182;SDS011;23991;52.430;10.586;2024-01-30T03:27:51;9.98;;;6.40;;
38182;SDS011;23991;52.430;10.586;2024-01-30T03:30:16;12.77;;;7.30;;
38182;SDS011;23991;52.430;10.586;2024-01-30T03:32:42;10.75;;;7.15;;
38182;SDS011;23991;52.430;10.586;2024-01-30T03:35:08;14.15;;;6.60;;
38182;SDS011;23991;52.430;10.586;2024-01-30T03:37:34;11.32;;;8.02;;
38182;SDS011;23991;52.430;10.586;2024-01-30T03:40:00;11.52;;;7.43;;
38182;SDS011;23991;52.430;10.586;2024-01-30T03:42:27;11.63;;;6.95;;
38182;SDS011;23991;52.430;10.586;2024-01-30T03:44:53;10.13;;;6.80;;
38182;SDS011;23991;52.430;10.586;2024-01-30T03:47:19;8.88;;;6.18;;
38182;SDS011;23991;52.430;10.586;2024-01-30T03:49:46;12.65;;;6.63;;
38182;SDS011;23991;52.430;10.586;2024-01-30T03:52:11;11.25;;;7.30;;
38182;SDS011;23991;52.430;10.586;2024-01-30T03:54:37;10.35;;;6.70;;
38182;SDS011;23991;52.430;10.586;2024-01-30T03:57:03;13.50;;;6.72;;
38182;SDS011;23991;52.430;10.586;2024-01-30T03:59:29;14.45;;;7.22;;
38182;SDS011;23991;52.430;10.586;2024-01-30T04:01:54;9.60;;;6.60;;
38182;SDS011;23991;52.430;10.586;2024-01-30T04:04:20;10.93;;;6.80;;
38182;SDS011;23991;52.430;10.586;2024-01-30T04:06:46;13.50;;;7.38;;
38182;SDS011;23991;52.430;10.586;2024-01-30T04:09:12;11.32;;;6.85;;
38182;SDS011;23991;52.430;10.586;2024-01-30T04:11:38;13.18;;;7.22;;
38182;SDS011;23991;52.430;10.586;2024-01-30T04:14:04;11.27;;;7.38;;
38182;SDS011;23991;52.430;10.586;2024-01-30T04:16:30;13.13;;;7.13;;
38182;SDS011;23991;52.430;10.586;2024-01-30T04:18:56;10.57;;;7.43;;
38182;SDS011;23991;52.430;10.586;2024-01-30T04:21:21;10.30;;;7.03;;
38182;SDS011;23991;52.430;10.586;2024-01-30T04:23:47;11.93;;;7.30;;
38182;SDS011;23991;52.430;10.586;2024-01-30T04:26:14;13.88;;;7.32;;
38182;SDS011;23991;52.430;10.586;2024-01-30T04:28:43;12.32;;;7.57;;
38182;SDS011;23991;52.430;10.586;2024-01-30T04:31:10;17.60;;;7.35;;
38182;SDS011;23991;52.430;10.586;2024-01-30T04:33:35;12.35;;;7.55;;
38182;SDS011;23991;52.430;10.586;2024-01-30T04:36:01;11.82;;;7.38;;
38182;SDS011;23991;52.430;10.586;2024-01-30T04:38:28;11.15;;;6.97;;
38182;SDS011;23991;52.430;10.586;2024-01-30T04:40:53;13.25;;;7.38;;
38182;SDS011;23991;52.430;10.586;2024-01-30T04:43:19;11.57;;;7.30;;
38182;SDS011;23991;52.430;10.586;2024-01-30T04:45:45;13.70;;;6.95;;
38182;SDS011;23991;52.430;10.586;2024-01-30T04:48:10;10.93;;;7.25;;
38182;SDS011;23991;52.430;10.586;2024-01-30T04:50:36;11.20;;;6.80;;
38182;SDS011;23991;52.430;10.586;2024-01-30T04:53:01;13.45;;;7.47;;
38182;SDS011;23991;52.430;10.586;2024-01-30T04:55:27;10.80;;;6.93;;
38182;SDS011;23991;52.430;10.586;2024-01-30T04:57:53;10.70;;;7.38;;
38182;SDS011;23991;52.430;10.586;2024-01-30T05:00:18;11.25;;;7.47;;
38182;SDS011;23991;52.430;10.586;2024-01-30T05:02:44;11.88;;;6.90;;
38182;SDS011;23991;52.430;10.586;2024-01-30T05:05:10;15.60;;;7.40;;
38182;SDS011;23991;52.430;10.586;2024-01-30T05:07:36;11.27;;;8.02;;
38182;SDS011;23991;52.430;10.586;2024-01-30T05:10:02;12.85;;;8.05;;
38182;SDS011;23991;52.430;10.586;2024-01-30T05:12:28;12.65;;;7.32;;
38182;SDS011;23991;52.430;10.586;2024-01-30T05:14:54;10.95;;;7.32;;
38182;SDS011;23991;52.430;10.586;2024-01-30T05:17:19;13.52;;;7.07;;
38182;SDS011;23991;52.430;10.586;2024-01-30T05:19:45;12.20;;;8.43;;
38182;SDS011;23991;52.430;10.586;2024-01-30T05:22:10;11.23;;;7.15;;
38182;SDS011;23991;52.430;10.586;2024-01-30T05:24:40;10.68;;;7.13;;
38182;SDS011;23991;52.430;10.586;2024-01-30T05:27:07;12.32;;;7.97;;
38182;SDS011;23991;52.430;10.586;2024-01-30T05:29:33;11.88;;;7.90;;
38182;SDS011;23991;52.430;10.586;2024-01-30T05:31:58;12.82;;;7.70;;
38182;SDS011;23991;52.430;10.586;2024-01-30T05:34:24;11.57;;;7.00;;
38182;SDS011;23991;52.430;10.586;2024-01-30T05:36:49;10.77;;;6.72;;
38182;SDS011;23991;52.430;10.586;2024-01-30T05:39:15;12.00;;;7.90;;
38182;SDS011;23991;52.430;10.586;2024-01-30T05:41:41;14.00;;;8.07;;
38182;SDS011;23991;52.430;10.586;2024-01-30T05:44:06;13.02;;;7.65;;
38182;SDS011;23991;52.430;10.586;2024-01-30T05:46:32;11.60;;;7.47;;
38182;SDS011;23991;52.430;10.586;2024-01-30T05:48:58;13.00;;;7.93;;
38182;SDS011;23991;52.430;10.586;2024-01-30T05:51:24;13.43;;;7.82;;
38182;SDS011;23991;52.430;10.586;2024-01-30T05:53:49;10.93;;;7.03;;
38182;SDS011;23991;52.430;10.586;2024-01-30T05:56:15;13.48;;;7.70;;
38182;SDS011;23991;52.430;10.586;2024-01-30T05:58:41;12.07;;;7.40;;
38182;SDS011;23991;52.430;10.586;2024-01-30T06:01:08;10.70;;;6.85;;
38182;SDS011;23991;52.430;10.586;2024-01-30T06:03:34;12.60;;;7.15;;
38182;SDS011;23991;52.430;10.586;2024-01-30T06:05:59;12.95;;;7.20;;
38182;SDS011;23991;52.430;10.586;2024-01-30T06:08:25;11.20;;;6.85;;
38182;SDS011;23991;52.430;10.586;2024-01-30T06:10:50;13.05;;;7.90;;
38182;SDS011;23991;52.430;10.586;2024-01-30T06:13:17;13.63;;;7.05;;
38182;SDS011;23991;52.430;10.586;2024-01-30T06:15:42;11.30;;;7.28;;
38182;SDS011;23991;52.430;10.586;2024-01-30T06:18:08;10.10;;;7.40;;
38182;SDS011;23991;52.430;10.586;2024-01-30T06:20:34;11.30;;;7.13;;
38182;SDS011;23991;52.430;10.586;2024-01-30T06:22:59;15.27;;;7.57;;
38182;SDS011;23991;52.430;10.586;2024-01-30T06:25:25;10.98;;;6.70;;
38182;SDS011;23991;52.430;10.586;2024-01-30T06:27:51;11.65;;;7.70;;
38182;SDS011;23991;52.430;10.586;2024-01-30T06:30:16;12.05;;;7.63;;
38182;SDS011;23991;52.430;10.586;2024-01-30T06:32:42;11.52;;;7.03;;
38182;SDS011;23991;52.430;10.586;2024-01-30T06:35:08;11.38;;;6.63;;
38182;SDS011;23991;52.430;10.586;2024-01-30T06:37:35;9.70;;;6.95;;
38182;SDS011;23991;52.430;10.586;2024-01-30T06:40:01;10.73;;;7.10;;
38182;SDS011;23991;52.430;10.586;2024-01-30T06:42:26;12.10;;;6.70;;
38182;SDS011;23991;52.430;10.586;2024-01-30T06:44:52;11.73;;;7.13;;
38182;SDS011;23991;52.430;10.586;2024-01-30T06:47:17;12.23;;;7.35;;
38182;SDS011;23991;52.430;10.586;2024-01-30T06:49:43;13.85;;;7.72;;
38182;SDS011;23991;52.430;10.586;2024-01-30T06:52:10;10.43;;;7.28;;
38182;SDS011;23991;52.430;10.586;2024-01-30T06:54:36;12.63;;;8.10;;
38182;SDS011;23991;52.430;10.586;2024-01-30T06:57:01;12.18;;;7.97;;
38182;SDS011;23991;52.430;10.586;2024-01-30T06:59:27;16.05;;;8.30;;
38182;SDS011;23991;52.430;10.586;2024-01-30T07:01:53;14.00;;;7.90;;
38182;SDS011;23991;52.430;10.586;2024-01-30T07:04:19;16.17;;;8.00;;
38182;SDS011;23991;52.430;10.586;2024-01-30T07:06:44;11.00;;;7.53;;
38182;SDS011;23991;52.430;10.586;2024-01-30T07:09:10;13.13;;;8.55;;
38182;SDS011;23991;52.430;10.586;2024-01-30T07:11:35;15.70;;;8.20;;
38182;SDS011;23991;52.430;10.586;2024-01-30T07:14:01;16.67;;;9.32;;
38182;SDS011;23991;52.430;10.586;2024-01-30T07:16:29;16.42;;;9.93;;
38182;SDS011;23991;52.430;10.586;2024-01-30T07:18:55;12.82;;;8.35;;
38182;SDS011;23991;52.430;10.586;2024-01-30T07:21:21;17.38;;;9.13;;
38182;SDS011;23991;52.430;10.586;2024-01-30T07:23:52;13.35;;;8.43;;
38182;SDS011;23991;52.430;10.586;2024-01-30T07:26:18;16.08;;;8.73;;
38182;SDS011;23991;52.430;10.586;2024-01-30T07:28:44;12.82;;;8.30;;
38182;SDS011;23991;52.430;10.586;2024-01-30T07:31:10;14.70;;;8.95;;
38182;SDS011;23991;52.430;10.586;2024-01-30T07:33:35;14.65;;;8.25;;
38182;SDS011;23991;52.430;10.586;2024-01-30T07:36:01;11.98;;;7.90;;
38182;SDS011;23991;52.430;10.586;2024-01-30T07:38:27;14.73;;;8.55;;
38182;SDS011;23991;52.430;10.586;2024-01-30T07:40:52;16.38;;;8.60;;
38182;SDS011;23991;52.430;10.586;2024-01-30T07:43:18;12.07;;;8.05;;
38182;SDS011;23991;52.430;10.586;2024-01-30T07:45:45;15.52;;;8.30;;
38182;SDS011;23991;52.430;10.586;2024-01-30T07:48:10;12.68;;;7.63;;
38182;SDS011;23991;52.430;10.586;2024-01-30T07:50:36;14.25;;;8.13;;
38182;SDS011;23991;52.430;10.586;2024-01-30T07:53:01;14.82;;;8.00;;
38182;SDS011;23991;52.430;10.586;2024-01-30T07:55:27;13.75;;;8.68;;
38182;SDS011;23991;52.430;10.586;2024-01-30T07:57:54;13.02;;;8.05;;
38182;SDS011;23991;52.430;10.586;2024-01-30T08:00:20;12.52;;;7.60;;
38182;SDS011;23991;52.430;10.586;2024-01-30T08:02:46;17.30;;;8.32;;
38182;SDS011;23991;52.430;10.586;2024-01-30T08:05:12;15.10;;;8.23;;
38182;SDS011;23991;52.430;10.586;2024-01-30T08:07:40;12.27;;;7.50;;
38182;SDS011;23991;52.430;10.586;2024-01-30T08:10:10;18.67;;;8.53;;
38182;SDS011;23991;52.430;10.586;2024-01-30T08:12:37;13.75;;;8.65;;
38182;SDS011;23991;52.430;10.586;2024-01-30T08:15:02;11.48;;;7.78;;
38182;SDS011;23991;52.430;10.586;2024-01-30T08:17:29;9.55;;;6.63;;
38182;SDS011;23991;52.430;10.586;2024-01-30T08:19:55;14.18;;;7.30;;
38182;SDS011;23991;52.430;10.586;2024-01-30T08:22:20;13.27;;;7.88;;
38182;SDS011;23991;52.430;10.586;2024-01-30T08:24:46;11.48;;;6.70;;
38182;SDS011;23991;52.430;10.586;2024-01-30T08:27:11;11.05;;;7.13;;
38182;SDS011;23991;52.430;10.586;2024-01-30T08:29:37;17.08;;;7.47;;
38182;SDS011;23991;52.430;10.586;2024-01-30T08:32:04;10.77;;;6.95;;
38182;SDS011;23991;52.430;10.586;2024-01-30T08:34:30;10.90;;;7.50;;
38182;SDS011;23991;52.430;10.586;2024-01-30T08:36:56;11.20;;;7.00;;
38182;SDS011;23991;52.430;10.586;2024-01-30T08:39:22;11.27;;;6.80;;
38182;SDS011;23991;52.430;10.586;2024-01-30T08:41:48;11.55;;;6.53;;
38182;SDS011;23991;52.430;10.586;2024-01-30T08:44:15;11.88;;;7.35;;
38182;SDS011;23991;52.430;10.586;2024-01-30T08:46:41;14.23;;;7.43;;
38182;SDS011;23991;52.430;10.586;2024-01-30T08:49:09;10.05;;;6.38;;
38182;SDS011;23991;52.430;10.586;2024-01-30T08:51:35;13.65;;;6.93;;
38182;SDS011;23991;52.430;10.586;2024-01-30T08:54:02;12.30;;;7.20;;
38182;SDS011;23991;52.430;10.586;2024-01-30T08:56:27;13.48;;;7.50;;
38182;SDS011;23991;52.430;10.586;2024-01-30T08:58:53;10.65;;;6.68;;
38182;SDS011;23991;52.430;10.586;2024-01-30T09:01:19;10.10;;;6.47;;
38182;SDS011;23991;52.430;10.586;2024-01-30T09:03:45;11.27;;;6.53;;
38182;SDS011;23991;52.430;10.586;2024-01-30T09:06:11;14.43;;;7.75;;
38182;SDS011;23991;52.430;10.586;2024-01-30T09:08:38;14.10;;;7.78;;
38182;SDS011;23991;52.430;10.586;2024-01-30T09:11:14;12.60;;;7.43;;
38182;SDS011;23991;52.430;10.586;2024-01-30T09:13:40;8.75;;;6.22;;
38182;SDS011;23991;52.430;10.586;2024-01-30T09:16:06;12.05;;;7.05;;
38182;SDS011;23991;52.430;10.586;2024-01-30T09:18:32;14.18;;;6.82;;
38182;SDS011;23991;52.430;10.586;2024-01-30T09:20:58;12.90;;;6.97;;
38182;SDS011;23991;52.430;10.586;2024-01-30T09:23:24;9.23;;;6.45;;
38182;SDS011;23991;52.430;10.586;2024-01-30T09:25:55;12.00;;;7.07;;
38182;SDS011;23991;52.430;10.586;2024-01-30T09:28:21;9.88;;;6.55;;
38182;SDS011;23991;52.430;10.586;2024-01-30T09:30:50;11.45;;;7.00;;
38182;SDS011;23991;52.430;10.586;2024-01-30T09:33:16;12.07;;;6.80;;
38182;SDS011;23991;52.430;10.586;2024-01-30T09:35:41;11.90;;;7.00;;
38182;SDS011;23991;52.430;10.586;2024-01-30T09:38:07;11.18;;;6.18;;
38182;SDS011;23991;52.430;10.586;2024-01-30T09:40:32;9.20;;;6.47;;
38182;SDS011;23991;52.430;10.586;2024-01-30T09:42:58;10.48;;;7.00;;
38182;SDS011;23991;52.430;10.586;2024-01-30T09:45:26;13.25;;;7.07;;
38182;SDS011;23991;52.430;10.586;2024-01-30T09:47:52;12.43;;;7.10;;
38182;SDS011;23991;52.430;10.586;2024-01-30T09:50:18;18.08;;;7.15;;
38182;SDS011;23991;52.430;10.586;2024-01-30T09:52:45;14.23;;;7.65;;
38182;SDS011;23991;52.430;10.586;2024-01-30T09:55:11;11.45;;;6.70;;
38182;SDS011;23991;52.430;10.586;2024-01-30T09:57:37;14.20;;;7.20;;
38182;SDS011;23991;52.430;10.586;2024-01-30T10:00:04;12.13;;;8.00;;
38182;SDS011;23991;52.430;10.586;2024-01-30T10:02:32;11.35;;;6.80;;
38182;SDS011;23991;52.430;10.586;2024-01-30T10:04:58;11.82;;;7.43;;
38182;SDS011;23991;52.430;10.586;2024-01-30T10:07:25;12.13;;;7.30;;
38182;SDS011;23991;52.430;10.586;2024-01-30T10:09:50;10.10;;;6.88;;
38182;SDS011;23991;52.430;10.586;2024-01-30T10:12:18;12.25;;;7.00;;
38182;SDS011;23991;52.430;10.586;2024-01-30T10:14:44;10.73;;;7.60;;
38182;SDS011;23991;52.430;10.586;2024-01-30T10:17:09;10.70;;;6.57;;
38182;SDS011;23991;52.430;10.586;2024-01-30T10:19:36;10.15;;;6.70;;
38182;SDS011;23991;52.430;10.586;2024-01-30T10:22:03;12.90;;;7.00;;
38182;SDS011;23991;52.430;10.586;2024-01-30T10:24:29;9.90;;;6.30;;
38182;SDS011;23991;52.430;10.586;2024-01-30T10:26:55;13.55;;;6.40;;
38182;SDS011;23991;52.430;10.586;2024-01-30T10:29:21;8.82;;;5.85;;
38182;SDS011;23991;52.430;10.586;2024-01-30T10:32:00;8.80;;;5.93;;
38182;SDS011;23991;52.430;10.586;2024-01-30T10:34:26;12.75;;;6.40;;
38182;SDS011;23991;52.430;10.586;2024-01-30T10:37:13;10.25;;;5.95;;
38182;SDS011;23991;52.430;10.586;2024-01-30T10:39:42;10.73;;;5.67;;
38182;SDS011;23991;52.430;10.586;2024-01-30T10:42:11;9.50;;;5.53;;
38182;SDS011;23991;52.430;10.586;2024-01-30T10:45:00;8.05;;;5.45;;
38182;SDS011;23991;52.430;10.586;2024-01-30T10:47:34;8.02;;;5.65;;
38182;SDS011;23991;52.430;10.586;2024-01-30T10:50:03;10.55;;;5.60;;
38182;SDS011;23991;52.430;10.586;2024-01-30T10:52:29;18.65;;;5.97;;
38182;SDS011;23991;52.430;10.586;2024-01-30T10:54:56;9.02;;;6.00;;
38182;SDS011;23991;52.430;10.586;2024-01-30T10:57:25;9.02;;;6.18;;
38182;SDS011;23991;52.430;10.586;2024-01-30T11:02:19;10.05;;;5.35;;
38182;SDS011;23991;52.430;10.586;2024-01-30T11:04:45;9.40;;;6.03;;
38182;SDS011;23991;52.430;10.586;2024-01-30T11:07:18;8.05;;;5.45;;
38182;SDS011;23991;52.430;10.586;2024-01-30T11:10:03;7.68;;;5.13;;
38182;SDS011;23991;52.430;10.586;2024-01-30T11:12:30;7.00;;;5.13;;
38182;SDS011;23991;52.430;10.586;2024-01-30T11:15:11;6.78;;;5.05;;
38182;SDS011;23991;52.430;10.586;2024-01-30T11:22:46;7.82;;;5.32;;
38182;SDS011;23991;52.430;10.586;2024-01-30T11:25:15;7.57;;;5.43;;
38182;SDS011;23991;52.430;10.586;2024-01-30T11:27:42;8.48;;;5.22;;
38182;SDS011;23991;52.430;10.586;2024-01-30T11:30:09;7.30;;;5.38;;
38182;SDS011;23991;52.430;10.586;2024-01-30T11:32:35;9.23;;;5.95;;
38182;SDS011;23991;52.430;10.586;2024-01-30T11:35:05;9.15;;;5.70;;
38182;SDS011;23991;52.430;10.586;2024-01-30T11:37:31;7.53;;;5.30;;
38182;SDS011;23991;52.430;10.586;2024-01-30T11:40:01;8.20;;;5.80;;
38182;SDS011;23991;52.430;10.586;2024-01-30T11:42:29;7.60;;;5.25;;
38182;SDS011;23991;52.430;10.586;2024-01-30T11:44:55;10.77;;;6.00;;
38182;SDS011;23991;52.430;10.586;2024-01-30T11:47:22;9.57;;;5.97;;
38182;SDS011;23991;52.430;10.586;2024-01-30T11:49:47;10.43;;;5.68;;
38182;SDS011;23991;52.430;10.586;2024-01-30T11:52:13;7.63;;;5.00;;
38182;SDS011;23991;52.430;10.586;2024-01-30T11:54:39;7.93;;;4.95;;
38182;SDS011;23991;52.430;10.586;2024-01-30T11:57:05;7.82;;;5.53;;
38182;SDS011;23991;52.430;10.586;2024-01-30T11:59:30;9.48;;;5.45;;
38182;SDS011;23991;52.430;10.586;2024-01-30T12:01:56;7.60;;;5.13;;
38182;SDS011;23991;52.430;10.586;2024-01-30T12:04:21;7.78;;;4.63;;
38182;SDS011;23991;52.430;10.586;2024-01-30T12:06:50;7.65;;;5.10;;
38182;SDS011;23991;52.430;10.586;2024-01-30T12:09:16;11.77;;;5.40;;
38182;SDS011;23991;52.430;10.586;2024-01-30T12:11:45;8.10;;;5.03;;
38182;SDS011;23991;52.430;10.586;2024-01-30T12:14:11;9.75;;;5.03;;
38182;SDS011;23991;52.430;10.586;2024-01-30T12:16:37;8.02;;;5.18;;
38182;SDS011;23991;52.430;10.586;2024-01-30T12:19:03;10.10;;;4.95;;
38182;SDS011;23991;52.430;10.586;2024-01-30T12:21:29;9.05;;;5.85;;
38182;SDS011;23991;52.430;10.586;2024-01-30T12:23:56;7.38;;;5.45;;
38182;SDS011;23991;52.430;10.586;2024-01-30T12:26:23;8.80;;;5.68;;
38182;SDS011;23991;52.430;10.586;2024-01-30T12:28:50;8.10;;;4.80;;
38182;SDS011;23991;52.430;10.586;2024-01-30T12:31:25;9.15;;;5.30;;
38182;SDS011;23991;52.430;10.586;2024-01-30T12:33:54;9.75;;;4.78;;
38182;SDS011;23991;52.430;10.586;2024-01-30T12:36:20;8.02;;;4.72;;
38182;SDS011;23991;52.430;10.586;2024-01-30T12:38:47;9.65;;;5.85;;
38182;SDS011;23991;52.430;10.586;2024-01-30T12:41:12;6.80;;;4.72;;
38182;SDS011;23991;52.430;10.586;2024-01-30T12:43:38;9.10;;;5.30;;
38182;SDS011;23991;52.430;10.586;2024-01-30T12:46:03;9.05;;;5.50;;
38182;SDS011;23991;52.430;10.586;2024-01-30T12:48:29;14.55;;;5.40;;
38182;SDS011;23991;52.430;10.586;2024-01-30T12:50:55;9.30;;;4.97;;
38182;SDS011;23991;52.430;10.586;2024-01-30T12:53:21;7.05;;;4.70;;
38182;SDS011;23991;52.430;10.586;2024-01-30T12:55:47;9.18;;;4.80;;
38182;SDS011;23991;52.430;10.586;2024-01-30T12:58:14;10.13;;;5.10;;
38182;SDS011;23991;52.430;10.586;2024-01-30T13:00:40;7.18;;;4.70;;
38182;SDS011;23991;52.430;10.586;2024-01-30T13:03:07;8.50;;;5.57;;
38182;SDS011;23991;52.430;10.586;2024-01-30T13:05:33;8.48;;;5.72;;
38182;SDS011;23991;52.430;10.586;2024-01-30T13:07:59;12.18;;;6.15;;
38182;SDS011;23991;52.430;10.586;2024-01-30T13:10:24;8.60;;;5.22;;
38182;SDS011;23991;52.430;10.586;2024-01-30T13:12:50;6.93;;;5.10;;
38182;SDS011;23991;52.430;10.586;2024-01-30T13:15:15;8.02;;;5.30;;
38182;SDS011;23991;52.430;10.586;2024-01-30T13:17:41;8.85;;;5.10;;
38182;SDS011;23991;52.430;10.586;2024-01-30T13:20:07;7.95;;;4.68;;
38182;SDS011;23991;52.430;10.586;2024-01-30T13:22:33;8.25;;;5.25;;
38182;SDS011;23991;52.430;10.586;2024-01-30T13:24:59;7.70;;;4.90;;
38182;SDS011;23991;52.430;10.586;2024-01-30T13:27:24;8.88;;;5.40;;
38182;SDS011;23991;52.430;10.586;2024-01-30T13:29:50;7.45;;;4.85;;
38182;SDS011;23991;52.430;10.586;2024-01-30T13:32:16;7.70;;;5.18;;
38182;SDS011;23991;52.430;10.586;2024-01-30T13:34:41;7.43;;;4.93;;
38182;SDS011;23991;52.430;10.586;2024-01-30T13:37:08;8.95;;;5.15;;
38182;SDS011;23991;52.430;10.586;2024-01-30T13:39:35;7.75;;;5.10;;
38182;SDS011;23991;52.430;10.586;2024-01-30T13:42:00;9.30;;;5.00;;
38182;SDS011;23991;52.430;10.586;2024-01-30T13:44:26;8.07;;;5.32;;
38182;SDS011;23991;52.430;10.586;2024-01-30T13:46:52;8.60;;;5.15;;
38182;SDS011;23991;52.430;10.586;2024-01-30T13:49:20;9.27;;;5.40;;
38182;SDS011;23991;52.430;10.586;2024-01-30T13:51:45;8.73;;;5.25;;
38182;SDS011;23991;52.430;10.586;2024-01-30T13:54:11;6.88;;;5.15;;
38182;SDS011;23991;52.430;10.586;2024-01-30T13:56:36;8.75;;;4.97;;
38182;SDS011;23991;52.430;10.586;2024-01-30T13:59:03;7.78;;;5.47;;
38182;SDS011;23991;52.430;10.586;2024-01-30T14:01:30;9.45;;;5.32;;
38182;SDS011;23991;52.430;10.586;2024-01-30T14:03:56;10.05;;;5.20;;
38182;SDS011;23991;52.430;10.586;2024-01-30T14:06:22;7.75;;;4.90;;
38182;SDS011;23991;52.430;10.586;2024-01-30T14:08:48;9.43;;;5.15;;
38182;SDS011;23991;52.430;10.586;2024-01-30T14:11:13;8.75;;;5.25;;
38182;SDS011;23991;52.430;10.586;2024-01-30T14:13:39;8.38;;;4.85;;
38182;SDS011;23991;52.430;10.586;2024-01-30T14:16:05;9.38;;;5.13;;
38182;SDS011;23991;52.430;10.586;2024-01-30T14:18:30;6.88;;;4.85;;
38182;SDS011;23991;52.430;10.586;2024-01-30T14:20:56;9.05;;;5.32;;
38182;SDS011;23991;52.430;10.586;2024-01-30T14:23:22;8.13;;;5.72;;
38182;SDS011;23991;52.430;10.586;2024-01-30T14:25:47;7.70;;;5.22;;
38182;SDS011;23991;52.430;10.586;2024-01-30T14:28:13;9.27;;;6.30;;